createdAt,value
2018-10-09T00:01:06.206Z,7.40
2018-10-09T00:03:35.368Z,7.40
2018-10-09T00:06:04.477Z,7.40
2018-10-09T00:08:33.528Z,7.50
2018-10-09T00:11:02.556Z,7.60
2018-10-09T00:13:31.645Z,7.70
2018-10-09T00:16:00.694Z,7.70
2018-10-09T00:18:29.773Z,7.80
2018-10-09T00:20:58.826Z,7.90
2018-10-09T00:23:27.882Z,8.00
2018-10-09T00:25:57.868Z,8.00
2018-10-09T00:28:26.923Z,8.00
2018-10-09T00:30:55.950Z,8.10
2018-10-09T00:33:25.023Z,8.10
2018-10-09T00:36:00.583Z,8.10
2018-10-09T00:38:29.658Z,8.20
2018-10-09T00:40:58.708Z,8.20
2018-10-09T00:43:27.803Z,8.20
2018-10-09T00:45:56.839Z,8.20
2018-10-09T00:48:25.972Z,8.20
2018-10-09T00:50:55.070Z,8.20
2018-10-09T00:53:24.196Z,8.20
2018-10-09T00:55:53.333Z,8.30
2018-10-09T00:58:22.440Z,8.30
2018-10-09T01:00:51.567Z,8.30
2018-10-09T01:03:20.810Z,8.30
2018-10-09T01:05:49.947Z,8.30
2018-10-09T01:08:19.091Z,8.30
2018-10-09T01:10:48.341Z,8.40
2018-10-09T01:13:17.405Z,8.30
2018-10-09T01:15:46.494Z,8.30
2018-10-09T01:18:15.581Z,8.30
2018-10-09T01:20:44.690Z,8.20
2018-10-09T01:23:13.723Z,8.20
2018-10-09T01:25:42.849Z,8.20
2018-10-09T01:28:11.931Z,8.10
2018-10-09T01:30:40.974Z,8.00
2018-10-09T01:33:10.065Z,7.90
2018-10-09T01:35:39.151Z,7.90
2018-10-09T01:38:08.226Z,7.90
2018-10-09T01:40:37.256Z,7.90
2018-10-09T01:43:06.376Z,7.80
2018-10-09T01:45:35.397Z,7.80
2018-10-09T01:48:04.538Z,7.80
2018-10-09T01:50:33.652Z,7.80
2018-10-09T01:53:02.764Z,7.70
2018-10-09T01:55:31.900Z,7.70
2018-10-09T01:58:01.097Z,7.70
2018-10-09T02:00:30.197Z,7.60
2018-10-09T02:02:59.267Z,7.60
2018-10-09T02:05:28.361Z,7.60
2018-10-09T02:07:57.434Z,7.50
2018-10-09T02:10:26.621Z,7.40
2018-10-09T02:12:55.737Z,7.40
2018-10-09T02:15:24.791Z,7.40
2018-10-09T02:17:54.247Z,7.30
2018-10-09T02:20:23.339Z,7.30
2018-10-09T02:22:52.394Z,7.30
2018-10-09T02:25:21.549Z,7.20
2018-10-09T02:27:50.659Z,7.20
2018-10-09T02:30:19.714Z,7.10
2018-10-09T02:32:48.856Z,7.10
2018-10-09T02:35:17.921Z,7.10
2018-10-09T02:37:47.311Z,7.00
2018-10-09T02:40:16.388Z,7.00
2018-10-09T02:42:45.539Z,7.00
2018-10-09T02:45:14.586Z,6.90
2018-10-09T02:47:43.657Z,6.90
2018-10-09T02:50:12.741Z,6.90
2018-10-09T02:52:41.830Z,6.80
2018-10-09T02:55:17.741Z,6.80
2018-10-09T02:57:47.021Z,6.80
2018-10-09T03:00:16.144Z,6.70
2018-10-09T03:02:45.268Z,6.70
2018-10-09T03:05:14.338Z,6.60
2018-10-09T03:07:43.462Z,6.60
2018-10-09T03:10:12.558Z,6.60
2018-10-09T03:12:41.668Z,6.50
2018-10-09T03:15:10.783Z,6.50
2018-10-09T03:17:39.824Z,6.50
2018-10-09T03:20:08.948Z,6.40
2018-10-09T03:22:38.116Z,6.40
2018-10-09T03:25:07.325Z,6.40
2018-10-09T03:27:36.440Z,6.40
2018-10-09T03:30:07.281Z,6.40
2018-10-09T03:32:36.591Z,6.50
2018-10-09T03:35:05.720Z,6.50
2018-10-09T03:37:35.401Z,6.50
2018-10-09T03:40:04.637Z,6.50
2018-10-09T03:42:34.091Z,6.60
2018-10-09T03:45:03.256Z,6.50
2018-10-09T03:47:32.419Z,6.60
2018-10-09T03:50:01.482Z,6.60
2018-10-09T03:52:30.612Z,6.60
2018-10-09T03:54:59.750Z,6.60
2018-10-09T03:57:28.884Z,6.70
2018-10-09T03:59:57.937Z,6.70
2018-10-09T04:02:27.005Z,6.70
2018-10-09T04:04:56.168Z,6.70
2018-10-09T04:07:25.236Z,6.70
2018-10-09T04:09:54.307Z,6.70
2018-10-09T04:12:23.762Z,6.70
2018-10-09T04:14:52.877Z,6.80
2018-10-09T04:17:21.923Z,6.80
2018-10-09T04:19:51.028Z,6.80
2018-10-09T04:22:21.787Z,6.90
2018-10-09T04:24:50.963Z,6.90
2018-10-09T04:27:20.473Z,6.80
2018-10-09T04:29:49.556Z,6.90
2018-10-09T04:32:18.584Z,6.90
2018-10-09T04:34:47.710Z,6.90
2018-10-09T04:37:16.853Z,6.80
2018-10-09T04:39:45.987Z,6.80
2018-10-09T04:42:15.094Z,6.70
2018-10-09T04:44:44.198Z,6.70
2018-10-09T04:47:13.434Z,6.80
2018-10-09T04:49:42.503Z,6.80
2018-10-09T04:52:11.558Z,6.70
2018-10-09T04:54:40.627Z,6.70
2018-10-09T04:57:09.698Z,6.80
2018-10-09T04:59:38.814Z,6.80
2018-10-09T05:02:07.891Z,6.80
2018-10-09T05:04:36.923Z,6.80
2018-10-09T05:07:05.977Z,6.80
2018-10-09T05:09:35.127Z,6.80
2018-10-09T05:12:04.759Z,6.80
2018-10-09T05:14:33.897Z,6.80
2018-10-09T05:17:03.062Z,6.80
2018-10-09T05:19:32.120Z,6.80
2018-10-09T05:22:01.306Z,6.90
2018-10-09T05:24:30.394Z,6.90
2018-10-09T05:26:59.562Z,6.90
2018-10-09T05:29:28.785Z,6.80
2018-10-09T05:31:57.976Z,6.80
2018-10-09T05:34:27.351Z,6.80
2018-10-09T05:36:56.496Z,6.90
2018-10-09T05:39:25.587Z,6.90
2018-10-09T05:41:54.764Z,6.90
2018-10-09T05:44:24.031Z,6.90
2018-10-09T05:46:53.214Z,6.90
2018-10-09T05:49:22.378Z,6.90
2018-10-09T05:51:51.502Z,6.90
2018-10-09T05:54:20.603Z,6.90
2018-10-09T05:56:49.731Z,6.80
2018-10-09T05:59:18.770Z,6.90
2018-10-09T06:01:47.857Z,6.90
2018-10-09T06:04:16.889Z,6.90
2018-10-09T06:06:45.967Z,6.90
2018-10-09T06:09:15.835Z,6.90
2018-10-09T06:11:44.937Z,7.00
2018-10-09T06:14:14.046Z,7.00
2018-10-09T06:16:43.128Z,7.00
2018-10-09T06:19:12.299Z,7.10
2018-10-09T06:21:41.335Z,7.10
2018-10-09T06:24:10.411Z,7.10
2018-10-09T06:26:39.608Z,7.10
2018-10-09T06:29:08.703Z,7.20
2018-10-09T06:31:37.838Z,7.20
2018-10-09T06:34:07.149Z,7.20
2018-10-09T06:36:36.181Z,7.30
2018-10-09T06:39:07.213Z,7.30
2018-10-09T06:41:36.465Z,7.40
2018-10-09T06:44:05.626Z,7.40
2018-10-09T06:46:34.778Z,7.40
2018-10-09T06:49:03.853Z,7.50
2018-10-09T06:51:33.042Z,7.50
2018-10-09T06:54:02.240Z,7.50
2018-10-09T06:56:31.317Z,7.50
2018-10-09T06:59:00.403Z,7.50
2018-10-09T07:01:30.795Z,7.60
2018-10-09T07:03:59.893Z,7.60
2018-10-09T07:06:29.073Z,7.70
2018-10-09T07:08:58.167Z,7.70
2018-10-09T07:11:27.387Z,7.70
2018-10-09T07:13:56.506Z,7.80
2018-10-09T07:16:25.657Z,7.80
2018-10-09T07:18:54.824Z,7.90
2018-10-09T07:21:23.923Z,8.00
2018-10-09T07:23:53.004Z,8.00
2018-10-09T07:26:22.094Z,8.10
2018-10-09T07:28:51.238Z,8.20
2018-10-09T07:31:20.291Z,8.40
2018-10-09T07:33:49.885Z,8.50
2018-10-09T07:36:18.941Z,8.60
2018-10-09T07:38:48.059Z,8.70
2018-10-09T07:41:17.092Z,8.80
2018-10-09T07:43:46.363Z,9.00
2018-10-09T07:46:15.431Z,9.10
2018-10-09T07:48:46.081Z,9.30
2018-10-09T07:51:15.153Z,9.40
2018-10-09T07:53:44.314Z,9.60
2018-10-09T07:56:13.415Z,9.70
2018-10-09T07:58:42.666Z,9.90
2018-10-09T08:01:11.738Z,10.10
2018-10-09T08:03:40.772Z,10.20
2018-10-09T08:06:09.795Z,10.30
2018-10-09T08:08:38.774Z,10.50
2018-10-09T08:11:07.812Z,10.60
2018-10-09T08:13:36.806Z,10.70
2018-10-09T08:16:05.861Z,10.80
2018-10-09T08:18:34.867Z,10.90
2018-10-09T08:21:03.905Z,11.00
2018-10-09T08:23:33.336Z,11.10
2018-10-09T08:26:02.470Z,11.20
2018-10-09T08:28:32.112Z,11.30
2018-10-09T08:31:01.206Z,11.30
2018-10-09T08:33:30.216Z,11.40
2018-10-09T08:35:59.261Z,11.40
2018-10-09T08:38:28.353Z,11.50
2018-10-09T08:40:57.388Z,11.50
2018-10-09T08:43:26.395Z,11.60
2018-10-09T08:45:55.455Z,11.60
2018-10-09T08:48:24.492Z,11.60
2018-10-09T08:50:53.491Z,11.70
2018-10-09T08:53:22.529Z,11.70
2018-10-09T08:55:51.565Z,11.80
2018-10-09T08:58:20.585Z,11.80
2018-10-09T09:00:49.732Z,11.80
2018-10-09T09:03:18.745Z,11.90
2018-10-09T09:05:47.885Z,11.90
2018-10-09T09:08:16.954Z,12.00
2018-10-09T09:10:45.944Z,12.10
2018-10-09T09:13:14.992Z,12.10
2018-10-09T09:15:44.021Z,12.20
2018-10-09T09:18:13.094Z,12.30
2018-10-09T09:20:42.202Z,12.30
2018-10-09T09:23:11.151Z,12.40
2018-10-09T09:25:40.317Z,12.50
2018-10-09T09:28:10.146Z,12.60
2018-10-09T09:30:39.220Z,12.70
2018-10-09T09:33:08.262Z,12.80
2018-10-09T09:35:37.353Z,12.90
2018-10-09T09:38:06.668Z,12.90
2018-10-09T09:40:35.763Z,13.00
2018-10-09T09:43:04.828Z,13.20
2018-10-09T09:45:33.947Z,13.30
2018-10-09T09:48:02.965Z,13.40
2018-10-09T09:50:32.010Z,13.50
2018-10-09T09:53:01.050Z,13.60
2018-10-09T09:55:30.073Z,13.70
2018-10-09T09:57:59.252Z,13.80
2018-10-09T10:00:33.514Z,13.90
2018-10-09T10:03:02.568Z,14.00
2018-10-09T10:05:31.932Z,14.20
2018-10-09T10:08:01.401Z,14.30
2018-10-09T10:10:30.502Z,14.40
2018-10-09T10:12:59.500Z,14.50
2018-10-09T10:15:28.625Z,14.60
2018-10-09T10:17:57.651Z,14.80
2018-10-09T10:20:26.805Z,14.80
2018-10-09T10:22:56.094Z,14.90
2018-10-09T10:25:25.402Z,15.00
2018-10-09T10:27:54.461Z,15.10
2018-10-09T10:30:23.456Z,15.20
2018-10-09T10:32:52.480Z,15.20
2018-10-09T10:35:21.483Z,15.20
2018-10-09T10:37:55.531Z,15.20
2018-10-09T10:40:24.775Z,15.20
2018-10-09T10:42:53.865Z,15.20
2018-10-09T10:45:22.906Z,15.20
2018-10-09T10:47:52.011Z,15.30
2018-10-09T10:50:21.079Z,15.30
2018-10-09T10:52:50.231Z,15.30
2018-10-09T10:55:19.458Z,15.30
2018-10-09T10:57:48.551Z,15.30
2018-10-09T11:00:17.677Z,15.30
2018-10-09T11:02:46.736Z,15.30
2018-10-09T11:05:15.919Z,15.30
2018-10-09T11:07:45.004Z,15.30
2018-10-09T11:10:14.044Z,15.40
2018-10-09T11:12:43.157Z,15.50
2018-10-09T11:15:12.222Z,15.60
2018-10-09T11:17:41.207Z,15.70
2018-10-09T11:20:10.243Z,15.80
2018-10-09T11:22:39.304Z,15.80
2018-10-09T11:25:08.401Z,15.90
2018-10-09T11:27:37.653Z,15.90
2018-10-09T11:30:06.982Z,15.90
2018-10-09T11:32:36.094Z,16.00
2018-10-09T11:35:05.203Z,16.10
2018-10-09T11:37:34.277Z,16.10
2018-10-09T11:40:03.331Z,16.20
2018-10-09T11:42:32.469Z,16.20
2018-10-09T11:45:01.580Z,16.20
2018-10-09T11:47:30.612Z,16.20
2018-10-09T11:49:59.644Z,16.30
2018-10-09T11:52:28.715Z,16.30
2018-10-09T11:54:57.785Z,16.30
2018-10-09T11:57:26.792Z,16.30
2018-10-09T11:59:55.875Z,16.30
2018-10-09T12:02:24.963Z,16.40
2018-10-09T12:04:53.977Z,16.40
2018-10-09T12:07:23.056Z,16.50
2018-10-09T12:09:52.085Z,16.50
2018-10-09T12:12:21.183Z,16.60
2018-10-09T12:14:50.256Z,16.60
2018-10-09T12:17:19.300Z,16.70
2018-10-09T12:19:48.356Z,16.70
2018-10-09T12:22:17.383Z,16.70
2018-10-09T12:24:46.425Z,16.80
2018-10-09T12:27:15.494Z,16.80
2018-10-09T12:29:44.487Z,16.80
2018-10-09T12:32:13.545Z,16.90
2018-10-09T12:34:42.647Z,17.00
2018-10-09T12:37:11.736Z,17.00
2018-10-09T12:39:40.881Z,17.10
2018-10-09T12:42:09.929Z,17.10
2018-10-09T12:44:39.003Z,17.10
2018-10-09T12:47:08.077Z,17.20
2018-10-09T12:49:37.071Z,17.20
2018-10-09T12:52:07.048Z,17.30
2018-10-09T12:54:36.108Z,17.30
2018-10-09T12:57:05.260Z,17.30
2018-10-09T12:59:34.353Z,17.40
2018-10-09T13:02:03.406Z,17.40
2018-10-09T13:04:32.523Z,17.50
2018-10-09T13:07:01.567Z,17.50
2018-10-09T13:09:30.713Z,17.50
2018-10-09T13:11:59.743Z,17.50
2018-10-09T13:14:28.808Z,17.50
2018-10-09T13:16:57.825Z,17.40
2018-10-09T13:19:26.897Z,17.40
2018-10-09T13:21:56.290Z,17.40
2018-10-09T13:24:25.011Z,17.40
2018-10-09T13:26:54.033Z,17.40
2018-10-09T13:29:23.044Z,17.50
2018-10-09T13:31:52.126Z,17.50
2018-10-09T13:34:21.246Z,17.50
2018-10-09T13:36:50.664Z,17.60
2018-10-09T13:39:19.759Z,17.60
2018-10-09T13:41:48.753Z,17.60
2018-10-09T13:44:17.740Z,17.60
2018-10-09T13:46:46.788Z,17.60
2018-10-09T13:49:15.817Z,17.60
2018-10-09T13:51:44.895Z,17.70
2018-10-09T13:54:13.965Z,17.70
2018-10-09T13:56:43.012Z,17.70
2018-10-09T13:59:12.000Z,17.80
2018-10-09T14:01:41.015Z,17.80
2018-10-09T14:04:10.058Z,17.80
2018-10-09T14:06:39.119Z,17.80
2018-10-09T14:09:10.018Z,17.70
2018-10-09T14:11:39.439Z,17.80
2018-10-09T14:14:08.581Z,17.80
2018-10-09T14:16:37.572Z,17.80
2018-10-09T14:19:07.001Z,17.80
2018-10-09T14:21:35.995Z,17.80
2018-10-09T14:24:05.126Z,17.80
2018-10-09T14:26:34.189Z,17.70
2018-10-09T14:29:03.239Z,17.70
2018-10-09T14:31:32.321Z,17.70
2018-10-09T14:34:01.337Z,17.60
2018-10-09T14:36:30.371Z,17.60
2018-10-09T14:38:59.364Z,17.60
2018-10-09T14:41:28.426Z,17.50
2018-10-09T14:43:57.459Z,17.50
2018-10-09T14:46:26.506Z,17.50
2018-10-09T14:48:55.507Z,17.50
2018-10-09T14:51:24.553Z,17.40
2018-10-09T14:53:53.560Z,17.40
2018-10-09T14:56:22.638Z,17.40
2018-10-09T14:58:51.651Z,17.40
2018-10-09T15:01:20.728Z,17.40
2018-10-09T15:03:49.762Z,17.30
2018-10-09T15:06:25.108Z,17.30
2018-10-09T15:08:54.190Z,17.30
2018-10-09T15:11:23.302Z,17.20
2018-10-09T15:13:52.509Z,17.20
2018-10-09T15:16:21.591Z,17.10
2018-10-09T15:18:50.618Z,17.10
2018-10-09T15:21:19.702Z,17.10
2018-10-09T15:23:48.715Z,17.00
2018-10-09T15:26:17.722Z,16.90
2018-10-09T15:28:46.752Z,16.90
2018-10-09T15:31:15.826Z,16.80
2018-10-09T15:33:45.789Z,16.80
2018-10-09T15:36:14.796Z,16.70
2018-10-09T15:38:43.816Z,16.70
2018-10-09T15:41:12.956Z,16.70
2018-10-09T15:43:41.961Z,16.70
2018-10-09T15:46:11.027Z,16.80
2018-10-09T15:48:40.057Z,16.80
2018-10-09T15:51:09.076Z,16.70
2018-10-09T15:53:38.157Z,16.60
2018-10-09T15:56:07.356Z,16.40
2018-10-09T15:58:36.379Z,16.20
2018-10-09T16:01:05.440Z,16.10
2018-10-09T16:03:34.436Z,16.00
2018-10-09T16:06:03.531Z,15.90
2018-10-09T16:08:32.599Z,15.70
2018-10-09T16:11:01.669Z,15.70
2018-10-09T16:13:30.701Z,15.60
2018-10-09T16:16:00.803Z,15.40
2018-10-09T16:18:29.847Z,15.30
2018-10-09T16:20:58.884Z,15.20
2018-10-09T16:23:28.016Z,15.10
2018-10-09T16:25:57.059Z,15.00
2018-10-09T16:28:26.125Z,14.80
2018-10-09T16:30:55.797Z,14.70
2018-10-09T16:33:24.868Z,14.50
2018-10-09T16:35:53.884Z,14.30
2018-10-09T16:38:23.314Z,14.20
2018-10-09T16:40:52.374Z,14.00
2018-10-09T16:43:21.454Z,13.90
2018-10-09T16:45:50.516Z,13.70
2018-10-09T16:48:19.645Z,13.50
2018-10-09T16:50:48.711Z,13.40
2018-10-09T16:53:17.821Z,13.30
2018-10-09T16:55:46.930Z,13.20
2018-10-09T16:58:15.995Z,13.10
2018-10-09T17:00:45.383Z,12.90
2018-10-09T17:03:14.499Z,12.80
2018-10-09T17:05:43.647Z,12.70
2018-10-09T17:08:12.700Z,12.60
2018-10-09T17:10:41.793Z,12.40
2018-10-09T17:13:11.015Z,12.20
2018-10-09T17:18:02.279Z,12.10
2018-10-09T17:20:31.460Z,11.80
2018-10-09T17:23:00.448Z,11.70
2018-10-09T17:25:29.491Z,11.60
2018-10-09T17:27:59.087Z,11.40
2018-10-09T17:30:28.247Z,11.30
2018-10-09T17:32:57.294Z,11.30
2018-10-09T17:35:26.387Z,11.20
2018-10-09T17:37:55.360Z,11.10
2018-10-09T17:40:24.425Z,11.10
2018-10-09T17:42:53.482Z,11.00
2018-10-09T17:45:22.476Z,10.90
2018-10-09T17:47:51.525Z,10.90
2018-10-09T17:50:20.681Z,10.90
2018-10-09T17:52:50.092Z,10.80
2018-10-09T17:55:19.080Z,10.70
2018-10-09T17:57:48.366Z,10.70
2018-10-09T18:00:19.462Z,10.60
2018-10-09T18:02:50.082Z,10.50
2018-10-09T18:05:23.505Z,10.40
2018-10-09T18:07:52.929Z,10.30
2018-10-09T18:10:22.041Z,10.20
2018-10-09T18:12:52.508Z,10.10
2018-10-09T18:15:21.869Z,10.10
2018-10-09T18:17:51.503Z,10.00
2018-10-09T18:20:20.635Z,9.90
2018-10-09T18:22:49.663Z,9.90
2018-10-09T18:25:18.729Z,9.90
2018-10-09T18:27:47.766Z,9.80
2018-10-09T18:30:16.844Z,9.80
2018-10-09T18:32:46.147Z,9.70
2018-10-09T18:35:15.016Z,9.70
2018-10-09T18:37:44.142Z,9.60
2018-10-09T18:40:13.168Z,9.50
2018-10-09T18:42:42.186Z,9.50
2018-10-09T18:45:11.281Z,9.40
2018-10-09T18:47:40.915Z,9.40
2018-10-09T18:50:10.377Z,9.40
2018-10-09T18:52:40.120Z,9.30
2018-10-09T18:55:11.129Z,9.40
2018-10-09T18:57:40.198Z,9.40
2018-10-09T19:00:09.901Z,9.40
2018-10-09T19:02:39.520Z,9.30
2018-10-09T19:05:09.185Z,9.30
2018-10-09T19:07:38.475Z,9.30
2018-10-09T19:10:07.831Z,9.30
2018-10-09T19:12:36.829Z,9.30
2018-10-09T19:15:06.213Z,9.20
2018-10-09T19:17:35.208Z,9.20
2018-10-09T19:20:04.302Z,9.10
2018-10-09T19:22:33.421Z,9.10
2018-10-09T19:25:02.472Z,9.00
2018-10-09T19:27:38.140Z,8.90
2018-10-09T19:30:07.946Z,8.90
2018-10-09T19:32:37.067Z,8.80
2018-10-09T19:35:06.285Z,8.80
2018-10-09T19:37:35.326Z,8.70
2018-10-09T19:40:04.728Z,8.70
2018-10-09T19:42:33.764Z,8.60
2018-10-09T19:45:02.823Z,8.50
2018-10-09T19:47:36.324Z,8.50
2018-10-09T19:50:07.292Z,8.40
2018-10-09T19:52:36.867Z,8.40
2018-10-09T19:55:06.311Z,8.30
2018-10-09T19:57:35.345Z,8.20
2018-10-09T20:00:04.964Z,8.20
2018-10-09T20:02:33.962Z,8.10
2018-10-09T20:05:03.065Z,8.10
2018-10-09T20:07:32.186Z,8.00
2018-10-09T20:10:01.213Z,7.90
2018-10-09T20:12:30.238Z,7.80
2018-10-09T20:14:59.310Z,7.80
2018-10-09T20:17:28.356Z,7.80
2018-10-09T20:19:57.366Z,7.70
2018-10-09T20:22:26.409Z,7.70
2018-10-09T20:24:55.410Z,7.60
2018-10-09T20:27:24.540Z,7.60
2018-10-09T20:29:53.555Z,7.60
2018-10-09T20:32:22.571Z,7.60
2018-10-09T20:34:51.612Z,7.60
2018-10-09T20:37:20.865Z,7.50
2018-10-09T20:39:49.933Z,7.50
2018-10-09T20:42:18.921Z,7.50
2018-10-09T20:44:47.968Z,7.40
2018-10-09T20:47:21.262Z,7.40
2018-10-09T20:49:50.342Z,7.40
2018-10-09T20:52:19.441Z,7.30
2018-10-09T20:54:48.423Z,7.30
2018-10-09T20:57:17.474Z,7.30
2018-10-09T20:59:46.574Z,7.20
2018-10-09T21:02:15.637Z,7.20
2018-10-09T21:04:44.687Z,7.10
2018-10-09T21:07:13.740Z,7.10
2018-10-09T21:09:42.789Z,7.00
2018-10-09T21:12:11.807Z,6.90
2018-10-09T21:14:40.837Z,6.90
2018-10-09T21:17:09.835Z,6.80
2018-10-09T21:19:38.896Z,6.80
2018-10-09T21:22:08.043Z,6.70
2018-10-09T21:24:37.026Z,6.70
2018-10-09T21:27:06.070Z,6.70
2018-10-09T21:29:35.197Z,6.60
2018-10-09T21:32:04.255Z,6.60
2018-10-09T21:34:34.057Z,6.60
2018-10-09T21:37:03.114Z,6.50
2018-10-09T21:39:32.158Z,6.50
2018-10-09T21:42:01.185Z,6.50
2018-10-09T21:44:30.886Z,6.50
2018-10-09T21:47:00.506Z,6.40
2018-10-09T21:49:29.793Z,6.40
2018-10-09T21:51:58.854Z,6.30
2018-10-09T21:54:27.927Z,6.30
2018-10-09T21:56:57.596Z,6.30
2018-10-09T21:59:27.052Z,6.20
2018-10-09T22:01:57.069Z,6.20
2018-10-09T22:04:26.424Z,6.10
2018-10-09T22:06:55.490Z,6.10
2018-10-09T22:09:24.840Z,6.00
2018-10-09T22:11:53.843Z,6.00
2018-10-09T22:14:22.873Z,6.00
2018-10-09T22:16:52.246Z,5.90
2018-10-09T22:19:28.109Z,5.90
2018-10-09T22:21:57.223Z,5.90
2018-10-09T22:24:26.362Z,5.90
2018-10-09T22:26:55.452Z,5.90
2018-10-09T22:29:24.956Z,6.00
2018-10-09T22:31:54.338Z,6.00
2018-10-09T22:34:23.359Z,6.00
2018-10-09T22:36:52.530Z,6.00
2018-10-09T22:39:21.624Z,6.00
2018-10-09T22:41:50.732Z,6.00
2018-10-09T22:44:19.812Z,5.90
2018-10-09T22:46:49.008Z,5.90
2018-10-09T22:49:18.221Z,5.90
2018-10-09T22:51:47.998Z,5.90
2018-10-09T22:54:17.166Z,5.90
2018-10-09T22:56:46.205Z,5.90
2018-10-09T22:59:15.194Z,5.90
2018-10-09T23:01:44.240Z,5.90
2018-10-09T23:04:13.321Z,5.90
2018-10-09T23:06:42.408Z,5.90
2018-10-09T23:09:12.230Z,6.00
2018-10-09T23:11:41.293Z,6.00
2018-10-09T23:14:10.293Z,6.00
2018-10-09T23:16:39.542Z,6.00
2018-10-09T23:19:08.564Z,5.90
2018-10-09T23:21:37.623Z,5.90
2018-10-09T23:24:06.672Z,5.90
2018-10-09T23:26:35.757Z,5.90
2018-10-09T23:29:04.920Z,5.90
2018-10-09T23:31:34.076Z,5.90
2018-10-09T23:34:03.166Z,5.90
2018-10-09T23:36:32.264Z,5.90
2018-10-09T23:39:01.352Z,5.90
2018-10-09T23:41:31.225Z,5.90
2018-10-09T23:44:00.235Z,5.80
2018-10-09T23:46:29.358Z,5.80
2018-10-09T23:48:58.376Z,5.80
2018-10-09T23:51:27.432Z,5.80
2018-10-09T23:53:57.744Z,5.80
2018-10-09T23:56:27.006Z,5.70
2018-10-09T23:59:02.433Z,5.70
